Terminal Aerodrome Forecast
Issued by NWS

Home | Current Version | Previous Version | Text Only | Print | Product List | Glossary Off
Versions: 1 2 3 4 5 6 7 8 9 10 11 12 13 14 15

000
FTUS43 KTOP 290004 AAA
TAFFOE
TAF AMD
KFOE 290004Z 2900/2924 04008KT P6SM SCT060
     FM290100 05004KT P6SM -SHRA VCTS BKN040CB
      TEMPO 2901/2903 VRB22G35KT 3SM TSRA BKN020CB
     FM290300 02005KT P6SM SCT040 BKN120=

USA.gov is the U.S. government's official web portal to all federal, state and local government web resources and services.